sensor_id;sensor_type;location;lat;lon;timestamp;temperature;humidity
8928;DHT22;4499;48.304;11.902;2023-06-22T00:01:23;19.10;99.90
8928;DHT22;4499;48.304;11.902;2023-06-22T00:03:52;19.10;99.90
8928;DHT22;4499;48.304;11.902;2023-06-22T00:06:20;19.10;99.90
8928;DHT22;4499;48.304;11.902;2023-06-22T00:08:49;19.00;99.90
8928;DHT22;4499;48.304;11.902;2023-06-22T00:11:17;19.00;99.90
8928;DHT22;4499;48.304;11.902;2023-06-22T00:13:46;19.00;99.90
8928;DHT22;4499;48.304;11.902;2023-06-22T00:16:16;19.00;99.90
8928;DHT22;4499;48.304;11.902;2023-06-22T00:18:44;19.00;99.90
8928;DHT22;4499;48.304;11.902;2023-06-22T00:21:15;19.00;99.90
8928;DHT22;4499;48.304;11.902;2023-06-22T00:23:43;19.00;99.90
8928;DHT22;4499;48.304;11.902;2023-06-22T00:26:11;19.00;99.90
8928;DHT22;4499;48.304;11.902;2023-06-22T00:28:39;19.10;99.90
8928;DHT22;4499;48.304;11.902;2023-06-22T00:31:08;19.10;99.90
8928;DHT22;4499;48.304;11.902;2023-06-22T00:33:36;19.10;99.90
8928;DHT22;4499;48.304;11.902;2023-06-22T00:36:04;19.10;99.90
8928;DHT22;4499;48.304;11.902;2023-06-22T00:38:35;19.10;99.90
8928;DHT22;4499;48.304;11.902;2023-06-22T00:41:06;19.10;99.90
8928;DHT22;4499;48.304;11.902;2023-06-22T00:43:34;19.10;99.90
8928;DHT22;4499;48.304;11.902;2023-06-22T00:46:03;19.10;99.90
8928;DHT22;4499;48.304;11.902;2023-06-22T00:48:31;19.10;99.90
8928;DHT22;4499;48.304;11.902;2023-06-22T00:50:59;19.10;99.90
8928;DHT22;4499;48.304;11.902;2023-06-22T00:53:27;19.10;99.90
8928;DHT22;4499;48.304;11.902;2023-06-22T00:55:57;19.10;99.90
8928;DHT22;4499;48.304;11.902;2023-06-22T00:58:26;19.10;99.90
8928;DHT22;4499;48.304;11.902;2023-06-22T01:00:54;19.10;99.90
8928;DHT22;4499;48.304;11.902;2023-06-22T01:03:22;19.00;99.90
8928;DHT22;4499;48.304;11.902;2023-06-22T01:05:51;19.00;99.90
8928;DHT22;4499;48.304;11.902;2023-06-22T01:08:29;19.00;99.90
8928;DHT22;4499;48.304;11.902;2023-06-22T01:11:04;19.00;99.90
8928;DHT22;4499;48.304;11.902;2023-06-22T01:13:39;18.90;99.90
8928;DHT22;4499;48.304;11.902;2023-06-22T01:16:14;18.90;99.90
8928;DHT22;4499;48.304;11.902;2023-06-22T01:18:44;18.90;99.90
8928;DHT22;4499;48.304;11.902;2023-06-22T01:21:16;18.90;99.90
8928;DHT22;4499;48.304;11.902;2023-06-22T01:24:02;18.90;99.90
8928;DHT22;4499;48.304;11.902;2023-06-22T01:26:40;18.90;99.90
8928;DHT22;4499;48.304;11.902;2023-06-22T01:29:12;18.80;99.90
8928;DHT22;4499;48.304;11.902;2023-06-22T01:31:44;18.80;99.90
8928;DHT22;4499;48.304;11.902;2023-06-22T01:34:13;18.80;99.90
8928;DHT22;4499;48.304;11.902;2023-06-22T01:36:42;18.70;99.90
8928;DHT22;4499;48.304;11.902;2023-06-22T01:39:11;18.80;99.90
8928;DHT22;4499;48.304;11.902;2023-06-22T01:41:42;18.70;99.90
8928;DHT22;4499;48.304;11.902;2023-06-22T01:44:12;18.60;99.90
8928;DHT22;4499;48.304;11.902;2023-06-22T01:46:40;18.60;99.90
8928;DHT22;4499;48.304;11.902;2023-06-22T01:49:09;18.60;99.90
8928;DHT22;4499;48.304;11.902;2023-06-22T01:51:37;18.60;99.90
8928;DHT22;4499;48.304;11.902;2023-06-22T01:54:06;18.60;99.90
8928;DHT22;4499;48.304;11.902;2023-06-22T01:56:36;18.70;99.90
8928;DHT22;4499;48.304;11.902;2023-06-22T01:59:09;18.70;99.90
8928;DHT22;4499;48.304;11.902;2023-06-22T02:01:44;18.70;99.90
8928;DHT22;4499;48.304;11.902;2023-06-22T02:04:18;18.70;99.90
8928;DHT22;4499;48.304;11.902;2023-06-22T02:06:51;18.70;99.90
8928;DHT22;4499;48.304;11.902;2023-06-22T02:09:21;18.70;99.90
8928;DHT22;4499;48.304;11.902;2023-06-22T02:11:51;18.70;99.90
8928;DHT22;4499;48.304;11.902;2023-06-22T02:14:22;18.70;99.90
8928;DHT22;4499;48.304;11.902;2023-06-22T02:16:52;18.70;99.90
8928;DHT22;4499;48.304;11.902;2023-06-22T02:19:23;18.70;99.90
8928;DHT22;4499;48.304;11.902;2023-06-22T02:21:51;18.70;99.90
8928;DHT22;4499;48.304;11.902;2023-06-22T02:24:20;18.60;99.90
8928;DHT22;4499;48.304;11.902;2023-06-22T02:26:50;18.60;99.90
8928;DHT22;4499;48.304;11.902;2023-06-22T02:29:18;18.60;99.90
8928;DHT22;4499;48.304;11.902;2023-06-22T02:31:46;18.60;99.90
8928;DHT22;4499;48.304;11.902;2023-06-22T02:34:16;18.50;99.90
8928;DHT22;4499;48.304;11.902;2023-06-22T02:36:45;18.40;99.90
8928;DHT22;4499;48.304;11.902;2023-06-22T02:39:19;18.40;99.90
8928;DHT22;4499;48.304;11.902;2023-06-22T02:41:49;18.40;99.90
8928;DHT22;4499;48.304;11.902;2023-06-22T02:44:17;18.30;99.90
8928;DHT22;4499;48.304;11.902;2023-06-22T02:46:46;18.30;99.90
8928;DHT22;4499;48.304;11.902;2023-06-22T02:49:16;18.30;99.90
8928;DHT22;4499;48.304;11.902;2023-06-22T02:51:47;18.20;99.90
8928;DHT22;4499;48.304;11.902;2023-06-22T02:54:15;18.10;99.90
8928;DHT22;4499;48.304;11.902;2023-06-22T02:56:43;18.10;99.90
8928;DHT22;4499;48.304;11.902;2023-06-22T02:59:11;18.00;99.90
8928;DHT22;4499;48.304;11.902;2023-06-22T03:01:40;18.00;99.90
8928;DHT22;4499;48.304;11.902;2023-06-22T03:04:08;17.90;99.90
8928;DHT22;4499;48.304;11.902;2023-06-22T03:06:38;17.90;99.90
8928;DHT22;4499;48.304;11.902;2023-06-22T03:09:07;17.80;99.90
8928;DHT22;4499;48.304;11.902;2023-06-22T03:11:36;17.80;99.90
8928;DHT22;4499;48.304;11.902;2023-06-22T03:14:04;17.70;99.90
8928;DHT22;4499;48.304;11.902;2023-06-22T03:16:32;17.70;99.90
8928;DHT22;4499;48.304;11.902;2023-06-22T03:19:01;17.60;99.90
8928;DHT22;4499;48.304;11.902;2023-06-22T03:21:29;17.60;99.90
8928;DHT22;4499;48.304;11.902;2023-06-22T03:24:00;17.60;99.90
8928;DHT22;4499;48.304;11.902;2023-06-22T03:26:28;17.60;99.90
8928;DHT22;4499;48.304;11.902;2023-06-22T03:28:56;17.60;99.90
8928;DHT22;4499;48.304;11.902;2023-06-22T03:31:24;17.60;99.90
8928;DHT22;4499;48.304;11.902;2023-06-22T03:33:52;17.50;99.90
8928;DHT22;4499;48.304;11.902;2023-06-22T03:36:21;17.60;99.90
8928;DHT22;4499;48.304;11.902;2023-06-22T03:38:50;17.60;99.90
8928;DHT22;4499;48.304;11.902;2023-06-22T03:41:19;17.60;99.90
8928;DHT22;4499;48.304;11.902;2023-06-22T03:43:47;17.60;99.90
8928;DHT22;4499;48.304;11.902;2023-06-22T03:46:15;17.60;99.90
8928;DHT22;4499;48.304;11.902;2023-06-22T03:48:43;17.70;99.90
8928;DHT22;4499;48.304;11.902;2023-06-22T03:51:12;17.70;99.90
8928;DHT22;4499;48.304;11.902;2023-06-22T03:53:40;17.70;99.90
8928;DHT22;4499;48.304;11.902;2023-06-22T03:56:08;17.80;99.90
8928;DHT22;4499;48.304;11.902;2023-06-22T03:58:38;17.80;99.90
8928;DHT22;4499;48.304;11.902;2023-06-22T04:01:10;17.80;99.90
8928;DHT22;4499;48.304;11.902;2023-06-22T04:03:38;17.80;99.90
8928;DHT22;4499;48.304;11.902;2023-06-22T04:06:07;17.80;99.90
8928;DHT22;4499;48.304;11.902;2023-06-22T04:08:35;17.90;99.90
8928;DHT22;4499;48.304;11.902;2023-06-22T04:11:03;17.90;99.90
8928;DHT22;4499;48.304;11.902;2023-06-22T04:13:31;17.90;99.90
8928;DHT22;4499;48.304;11.902;2023-06-22T04:16:01;17.90;99.90
8928;DHT22;4499;48.304;11.902;2023-06-22T04:18:29;18.00;99.90
8928;DHT22;4499;48.304;11.902;2023-06-22T04:20:57;18.00;99.90
8928;DHT22;4499;48.304;11.902;2023-06-22T04:23:25;18.10;99.90
8928;DHT22;4499;48.304;11.902;2023-06-22T04:25:54;18.10;99.90
8928;DHT22;4499;48.304;11.902;2023-06-22T04:28:24;18.20;99.90
8928;DHT22;4499;48.304;11.902;2023-06-22T04:30:54;18.20;99.90
8928;DHT22;4499;48.304;11.902;2023-06-22T04:33:26;18.30;99.90
8928;DHT22;4499;48.304;11.902;2023-06-22T04:35:56;18.30;99.90
8928;DHT22;4499;48.304;11.902;2023-06-22T04:38:24;18.30;99.90
8928;DHT22;4499;48.304;11.902;2023-06-22T04:40:53;18.40;99.90
8928;DHT22;4499;48.304;11.902;2023-06-22T04:43:21;18.50;99.90
8928;DHT22;4499;48.304;11.902;2023-06-22T04:45:49;18.60;99.90
8928;DHT22;4499;48.304;11.902;2023-06-22T04:48:19;18.70;99.90
8928;DHT22;4499;48.304;11.902;2023-06-22T04:50:49;18.80;99.90
8928;DHT22;4499;48.304;11.902;2023-06-22T04:53:17;18.90;99.90
8928;DHT22;4499;48.304;11.902;2023-06-22T04:55:45;18.90;99.90
8928;DHT22;4499;48.304;11.902;2023-06-22T04:58:16;19.00;99.90
8928;DHT22;4499;48.304;11.902;2023-06-22T05:00:46;19.00;99.90
8928;DHT22;4499;48.304;11.902;2023-06-22T05:03:17;19.10;99.90
8928;DHT22;4499;48.304;11.902;2023-06-22T05:05:46;19.20;99.90
8928;DHT22;4499;48.304;11.902;2023-06-22T05:08:16;19.30;99.90
8928;DHT22;4499;48.304;11.902;2023-06-22T05:10:44;19.30;99.90
8928;DHT22;4499;48.304;11.902;2023-06-22T05:13:30;19.40;99.90
8928;DHT22;4499;48.304;11.902;2023-06-22T05:15:58;19.40;99.90
8928;DHT22;4499;48.304;11.902;2023-06-22T05:18:29;19.50;99.90
8928;DHT22;4499;48.304;11.902;2023-06-22T05:20:58;19.60;99.90
8928;DHT22;4499;48.304;11.902;2023-06-22T05:23:28;19.70;99.90
8928;DHT22;4499;48.304;11.902;2023-06-22T05:25:57;19.70;99.90
8928;DHT22;4499;48.304;11.902;2023-06-22T05:28:25;19.90;99.90
8928;DHT22;4499;48.304;11.902;2023-06-22T05:30:53;20.00;99.90
8928;DHT22;4499;48.304;11.902;2023-06-22T05:33:22;20.10;99.90
8928;DHT22;4499;48.304;11.902;2023-06-22T05:35:50;20.20;99.90
8928;DHT22;4499;48.304;11.902;2023-06-22T05:38:18;20.40;99.90
8928;DHT22;4499;48.304;11.902;2023-06-22T05:40:47;20.50;99.90
8928;DHT22;4499;48.304;11.902;2023-06-22T05:43:15;20.60;99.90
8928;DHT22;4499;48.304;11.902;2023-06-22T05:45:44;20.80;99.90
8928;DHT22;4499;48.304;11.902;2023-06-22T05:48:12;21.00;99.90
8928;DHT22;4499;48.304;11.902;2023-06-22T05:50:40;21.30;99.90
8928;DHT22;4499;48.304;11.902;2023-06-22T05:53:08;21.50;99.90
8928;DHT22;4499;48.304;11.902;2023-06-22T05:55:36;21.80;99.90
8928;DHT22;4499;48.304;11.902;2023-06-22T05:58:06;22.80;99.90
8928;DHT22;4499;48.304;11.902;2023-06-22T06:00:34;23.80;99.90
8928;DHT22;4499;48.304;11.902;2023-06-22T06:03:02;24.70;99.90
8928;DHT22;4499;48.304;11.902;2023-06-22T06:05:31;25.50;99.90
8928;DHT22;4499;48.304;11.902;2023-06-22T06:08:00;26.40;99.90
8928;DHT22;4499;48.304;11.902;2023-06-22T06:10:28;26.80;99.90
8928;DHT22;4499;48.304;11.902;2023-06-22T06:12:57;27.20;99.60
8928;DHT22;4499;48.304;11.902;2023-06-22T06:15:30;27.70;98.30
8928;DHT22;4499;48.304;11.902;2023-06-22T06:17:58;28.20;96.70
8928;DHT22;4499;48.304;11.902;2023-06-22T06:20:27;28.50;94.70
8928;DHT22;4499;48.304;11.902;2023-06-22T06:22:56;28.80;94.40
8928;DHT22;4499;48.304;11.902;2023-06-22T06:25:24;29.30;91.30
8928;DHT22;4499;48.304;11.902;2023-06-22T06:27:52;29.60;91.00
8928;DHT22;4499;48.304;11.902;2023-06-22T06:30:22;29.80;87.30
8928;DHT22;4499;48.304;11.902;2023-06-22T06:32:51;29.00;88.20
8928;DHT22;4499;48.304;11.902;2023-06-22T06:35:20;28.70;90.30
8928;DHT22;4499;48.304;11.902;2023-06-22T06:37:49;29.10;87.90
8928;DHT22;4499;48.304;11.902;2023-06-22T06:40:19;29.30;89.60
8928;DHT22;4499;48.304;11.902;2023-06-22T06:42:48;30.00;85.20
8928;DHT22;4499;48.304;11.902;2023-06-22T06:45:19;29.70;83.00
8928;DHT22;4499;48.304;11.902;2023-06-22T06:47:51;29.70;83.70
8928;DHT22;4499;48.304;11.902;2023-06-22T06:50:20;29.40;84.20
8928;DHT22;4499;48.304;11.902;2023-06-22T06:52:48;29.40;83.80
8928;DHT22;4499;48.304;11.902;2023-06-22T06:55:17;29.60;82.50
8928;DHT22;4499;48.304;11.902;2023-06-22T06:57:46;29.90;79.00
8928;DHT22;4499;48.304;11.902;2023-06-22T07:00:18;29.50;77.40
8928;DHT22;4499;48.304;11.902;2023-06-22T07:02:46;29.70;78.70
8928;DHT22;4499;48.304;11.902;2023-06-22T07:05:17;29.50;77.40
8928;DHT22;4499;48.304;11.902;2023-06-22T07:07:45;29.30;79.90
8928;DHT22;4499;48.304;11.902;2023-06-22T07:10:13;29.40;79.20
8928;DHT22;4499;48.304;11.902;2023-06-22T07:12:42;30.20;76.70
8928;DHT22;4499;48.304;11.902;2023-06-22T07:15:11;29.80;77.20
8928;DHT22;4499;48.304;11.902;2023-06-22T07:17:40;30.20;76.40
8928;DHT22;4499;48.304;11.902;2023-06-22T07:20:09;30.70;74.20
8928;DHT22;4499;48.304;11.902;2023-06-22T07:22:44;30.80;71.60
8928;DHT22;4499;48.304;11.902;2023-06-22T07:25:19;30.60;73.80
8928;DHT22;4499;48.304;11.902;2023-06-22T07:27:59;31.10;70.30
8928;DHT22;4499;48.304;11.902;2023-06-22T07:30:28;30.50;71.10
8928;DHT22;4499;48.304;11.902;2023-06-22T07:32:58;30.20;71.90
8928;DHT22;4499;48.304;11.902;2023-06-22T07:35:30;31.00;70.90
8928;DHT22;4499;48.304;11.902;2023-06-22T07:38:00;31.40;68.00
8928;DHT22;4499;48.304;11.902;2023-06-22T07:40:32;31.40;67.60
8928;DHT22;4499;48.304;11.902;2023-06-22T07:43:02;31.30;67.70
8928;DHT22;4499;48.304;11.902;2023-06-22T07:45:31;32.00;67.00
8928;DHT22;4499;48.304;11.902;2023-06-22T07:48:02;32.40;62.90
8928;DHT22;4499;48.304;11.902;2023-06-22T07:50:30;32.40;62.30
8928;DHT22;4499;48.304;11.902;2023-06-22T07:53:00;32.80;61.80
8928;DHT22;4499;48.304;11.902;2023-06-22T07:55:28;33.00;59.90
8928;DHT22;4499;48.304;11.902;2023-06-22T07:57:57;33.00;62.10
8928;DHT22;4499;48.304;11.902;2023-06-22T08:00:25;33.70;59.70
8928;DHT22;4499;48.304;11.902;2023-06-22T08:02:53;33.80;58.40
8928;DHT22;4499;48.304;11.902;2023-06-22T08:05:22;33.70;57.60
8928;DHT22;4499;48.304;11.902;2023-06-22T08:07:51;34.60;57.80
8928;DHT22;4499;48.304;11.902;2023-06-22T08:10:22;35.00;53.50
8928;DHT22;4499;48.304;11.902;2023-06-22T08:12:50;34.90;53.60
8928;DHT22;4499;48.304;11.902;2023-06-22T08:15:19;35.10;51.90
8928;DHT22;4499;48.304;11.902;2023-06-22T08:17:49;35.30;50.20
8928;DHT22;4499;48.304;11.902;2023-06-22T08:20:19;34.80;50.70
8928;DHT22;4499;48.304;11.902;2023-06-22T08:22:47;33.80;51.30
8928;DHT22;4499;48.304;11.902;2023-06-22T08:25:15;33.60;52.20
8928;DHT22;4499;48.304;11.902;2023-06-22T08:27:47;33.50;52.50
8928;DHT22;4499;48.304;11.902;2023-06-22T08:30:16;33.80;51.80
8928;DHT22;4499;48.304;11.902;2023-06-22T08:32:45;33.50;52.00
8928;DHT22;4499;48.304;11.902;2023-06-22T08:35:13;33.70;53.00
8928;DHT22;4499;48.304;11.902;2023-06-22T08:37:41;33.60;52.70
8928;DHT22;4499;48.304;11.902;2023-06-22T08:40:10;33.30;52.70
8928;DHT22;4499;48.304;11.902;2023-06-22T08:42:40;32.70;53.60
8928;DHT22;4499;48.304;11.902;2023-06-22T08:45:12;31.90;57.00
8928;DHT22;4499;48.304;11.902;2023-06-22T08:47:40;31.90;56.80
8928;DHT22;4499;48.304;11.902;2023-06-22T08:50:10;31.60;56.90
8928;DHT22;4499;48.304;11.902;2023-06-22T08:52:39;32.30;59.40
8928;DHT22;4499;48.304;11.902;2023-06-22T08:55:09;32.90;56.50
8928;DHT22;4499;48.304;11.902;2023-06-22T08:57:38;33.50;54.70
8928;DHT22;4499;48.304;11.902;2023-06-22T09:00:07;33.90;56.70
8928;DHT22;4499;48.304;11.902;2023-06-22T09:02:45;34.90;52.00
8928;DHT22;4499;48.304;11.902;2023-06-22T09:05:14;35.00;52.40
8928;DHT22;4499;48.304;11.902;2023-06-22T09:07:42;34.90;52.00
8928;DHT22;4499;48.304;11.902;2023-06-22T09:10:11;34.70;50.80
8928;DHT22;4499;48.304;11.902;2023-06-22T09:12:39;33.80;52.80
8928;DHT22;4499;48.304;11.902;2023-06-22T09:15:09;32.90;54.80
8928;DHT22;4499;48.304;11.902;2023-06-22T09:17:44;32.60;56.70
8928;DHT22;4499;48.304;11.902;2023-06-22T09:20:14;32.60;59.20
8928;DHT22;4499;48.304;11.902;2023-06-22T09:22:42;33.00;57.50
8928;DHT22;4499;48.304;11.902;2023-06-22T09:25:11;33.20;56.50
8928;DHT22;4499;48.304;11.902;2023-06-22T09:27:39;33.70;54.90
8928;DHT22;4499;48.304;11.902;2023-06-22T09:30:09;34.00;54.30
8928;DHT22;4499;48.304;11.902;2023-06-22T09:32:37;33.90;54.70
8928;DHT22;4499;48.304;11.902;2023-06-22T09:35:08;34.40;54.70
8928;DHT22;4499;48.304;11.902;2023-06-22T09:37:38;34.90;53.10
8928;DHT22;4499;48.304;11.902;2023-06-22T09:40:07;34.70;52.90
8928;DHT22;4499;48.304;11.902;2023-06-22T09:42:38;35.00;51.30
8928;DHT22;4499;48.304;11.902;2023-06-22T09:45:07;34.90;50.90
8928;DHT22;4499;48.304;11.902;2023-06-22T09:47:35;34.50;51.30
8928;DHT22;4499;48.304;11.902;2023-06-22T09:50:05;35.10;53.20
8928;DHT22;4499;48.304;11.902;2023-06-22T09:52:34;34.80;51.70
8928;DHT22;4499;48.304;11.902;2023-06-22T09:55:06;35.20;53.70
8928;DHT22;4499;48.304;11.902;2023-06-22T09:57:34;35.40;50.50
8928;DHT22;4499;48.304;11.902;2023-06-22T10:00:03;35.50;49.50
8928;DHT22;4499;48.304;11.902;2023-06-22T10:02:35;36.00;48.80
8928;DHT22;4499;48.304;11.902;2023-06-22T10:05:04;36.60;49.20
8928;DHT22;4499;48.304;11.902;2023-06-22T10:07:34;35.90;48.10
8928;DHT22;4499;48.304;11.902;2023-06-22T10:10:07;35.80;51.20
8928;DHT22;4499;48.304;11.902;2023-06-22T10:12:35;36.00;48.20
8928;DHT22;4499;48.304;11.902;2023-06-22T10:15:05;35.60;49.30
8928;DHT22;4499;48.304;11.902;2023-06-22T10:17:34;34.20;50.00
8928;DHT22;4499;48.304;11.902;2023-06-22T10:20:03;34.60;49.90
8928;DHT22;4499;48.304;11.902;2023-06-22T10:22:40;33.80;51.70
8928;DHT22;4499;48.304;11.902;2023-06-22T10:25:10;34.50;52.00
8928;DHT22;4499;48.304;11.902;2023-06-22T10:27:39;34.70;51.40
8928;DHT22;4499;48.304;11.902;2023-06-22T10:30:09;34.80;52.90
8928;DHT22;4499;48.304;11.902;2023-06-22T10:32:40;35.10;50.70
8928;DHT22;4499;48.304;11.902;2023-06-22T10:35:09;35.10;50.10
8928;DHT22;4499;48.304;11.902;2023-06-22T10:37:42;35.60;49.20
8928;DHT22;4499;48.304;11.902;2023-06-22T10:40:12;36.10;50.50
8928;DHT22;4499;48.304;11.902;2023-06-22T10:42:42;36.80;48.00
8928;DHT22;4499;48.304;11.902;2023-06-22T10:45:11;36.40;48.10
8928;DHT22;4499;48.304;11.902;2023-06-22T10:47:39;36.10;48.60
8928;DHT22;4499;48.304;11.902;2023-06-22T10:50:09;35.90;48.80
8928;DHT22;4499;48.304;11.902;2023-06-22T10:52:38;36.40;50.10
8928;DHT22;4499;48.304;11.902;2023-06-22T10:55:08;36.50;46.80
8928;DHT22;4499;48.304;11.902;2023-06-22T10:57:36;36.40;47.80
8928;DHT22;4499;48.304;11.902;2023-06-22T11:00:07;37.00;47.10
8928;DHT22;4499;48.304;11.902;2023-06-22T11:02:37;36.70;47.10
8928;DHT22;4499;48.304;11.902;2023-06-22T11:05:07;36.90;46.70
8928;DHT22;4499;48.304;11.902;2023-06-22T11:07:35;36.90;46.00
8928;DHT22;4499;48.304;11.902;2023-06-22T11:10:10;37.20;47.30
8928;DHT22;4499;48.304;11.902;2023-06-22T11:12:38;37.00;45.00
8928;DHT22;4499;48.304;11.902;2023-06-22T11:15:07;36.40;45.50
8928;DHT22;4499;48.304;11.902;2023-06-22T11:17:36;36.40;45.60
8928;DHT22;4499;48.304;11.902;2023-06-22T11:20:05;36.20;47.80
8928;DHT22;4499;48.304;11.902;2023-06-22T11:22:38;36.20;49.20
8928;DHT22;4499;48.304;11.902;2023-06-22T11:25:07;36.30;48.00
8928;DHT22;4499;48.304;11.902;2023-06-22T11:27:36;35.70;46.20
8928;DHT22;4499;48.304;11.902;2023-06-22T11:30:06;35.80;46.50
8928;DHT22;4499;48.304;11.902;2023-06-22T11:32:34;35.20;48.30
8928;DHT22;4499;48.304;11.902;2023-06-22T11:35:03;34.50;47.80
8928;DHT22;4499;48.304;11.902;2023-06-22T11:37:31;34.00;47.40
8928;DHT22;4499;48.304;11.902;2023-06-22T11:39:59;33.70;51.80
8928;DHT22;4499;48.304;11.902;2023-06-22T11:42:33;33.50;52.60
8928;DHT22;4499;48.304;11.902;2023-06-22T11:45:05;33.20;51.60
8928;DHT22;4499;48.304;11.902;2023-06-22T11:47:33;32.80;51.40
8928;DHT22;4499;48.304;11.902;2023-06-22T11:50:01;33.00;52.00
8928;DHT22;4499;48.304;11.902;2023-06-22T11:52:29;33.30;52.20
8928;DHT22;4499;48.304;11.902;2023-06-22T11:54:58;33.70;53.60
8928;DHT22;4499;48.304;11.902;2023-06-22T11:57:26;33.40;51.10
8928;DHT22;4499;48.304;11.902;2023-06-22T11:59:55;33.40;53.50
8928;DHT22;4499;48.304;11.902;2023-06-22T12:02:24;33.60;51.30
8928;DHT22;4499;48.304;11.902;2023-06-22T12:04:52;33.90;51.10
8928;DHT22;4499;48.304;11.902;2023-06-22T12:07:23;33.80;50.40
8928;DHT22;4499;48.304;11.902;2023-06-22T12:09:51;33.60;49.80
8928;DHT22;4499;48.304;11.902;2023-06-22T12:12:19;34.10;49.90
8928;DHT22;4499;48.304;11.902;2023-06-22T12:14:47;34.00;48.70
8928;DHT22;4499;48.304;11.902;2023-06-22T12:17:15;34.00;49.60
8928;DHT22;4499;48.304;11.902;2023-06-22T12:19:45;34.00;48.50
8928;DHT22;4499;48.304;11.902;2023-06-22T12:22:13;34.60;51.20
8928;DHT22;4499;48.304;11.902;2023-06-22T12:24:41;34.80;47.90
8928;DHT22;4499;48.304;11.902;2023-06-22T12:27:09;34.70;48.90
8928;DHT22;4499;48.304;11.902;2023-06-22T12:29:38;34.90;50.10
8928;DHT22;4499;48.304;11.902;2023-06-22T12:32:07;34.40;47.30
8928;DHT22;4499;48.304;11.902;2023-06-22T12:34:35;34.50;48.60
8928;DHT22;4499;48.304;11.902;2023-06-22T12:37:04;34.50;46.60
8928;DHT22;4499;48.304;11.902;2023-06-22T12:39:32;34.80;49.20
8928;DHT22;4499;48.304;11.902;2023-06-22T12:42:01;34.70;48.00
8928;DHT22;4499;48.304;11.902;2023-06-22T12:44:29;34.90;47.90
8928;DHT22;4499;48.304;11.902;2023-06-22T12:46:57;34.90;47.80
8928;DHT22;4499;48.304;11.902;2023-06-22T12:49:25;34.90;46.90
8928;DHT22;4499;48.304;11.902;2023-06-22T12:51:53;34.80;47.10
8928;DHT22;4499;48.304;11.902;2023-06-22T12:54:23;35.20;45.80
8928;DHT22;4499;48.304;11.902;2023-06-22T12:56:51;34.80;47.00
8928;DHT22;4499;48.304;11.902;2023-06-22T12:59:22;35.10;45.30
8928;DHT22;4499;48.304;11.902;2023-06-22T13:01:50;35.00;44.40
8928;DHT22;4499;48.304;11.902;2023-06-22T13:04:18;34.80;45.50
8928;DHT22;4499;48.304;11.902;2023-06-22T13:06:46;34.80;46.40
8928;DHT22;4499;48.304;11.902;2023-06-22T13:09:19;34.90;46.10
8928;DHT22;4499;48.304;11.902;2023-06-22T13:11:49;34.90;47.60
8928;DHT22;4499;48.304;11.902;2023-06-22T13:14:17;34.90;46.40
8928;DHT22;4499;48.304;11.902;2023-06-22T13:16:45;34.80;47.00
8928;DHT22;4499;48.304;11.902;2023-06-22T13:19:14;34.50;46.20
8928;DHT22;4499;48.304;11.902;2023-06-22T13:21:42;34.30;48.00
8928;DHT22;4499;48.304;11.902;2023-06-22T13:24:10;34.20;48.00
8928;DHT22;4499;48.304;11.902;2023-06-22T13:26:38;34.10;46.40
8928;DHT22;4499;48.304;11.902;2023-06-22T13:29:08;34.00;44.90
8928;DHT22;4499;48.304;11.902;2023-06-22T13:31:36;33.90;46.10
8928;DHT22;4499;48.304;11.902;2023-06-22T13:34:04;34.00;46.20
8928;DHT22;4499;48.304;11.902;2023-06-22T13:36:33;34.20;50.90
8928;DHT22;4499;48.304;11.902;2023-06-22T13:39:01;34.50;44.90
8928;DHT22;4499;48.304;11.902;2023-06-22T13:41:30;34.30;44.10
8928;DHT22;4499;48.304;11.902;2023-06-22T13:43:59;34.20;44.70
8928;DHT22;4499;48.304;11.902;2023-06-22T13:46:28;33.80;45.10
8928;DHT22;4499;48.304;11.902;2023-06-22T13:48:56;33.60;45.50
8928;DHT22;4499;48.304;11.902;2023-06-22T13:51:24;33.80;46.20
8928;DHT22;4499;48.304;11.902;2023-06-22T13:53:53;33.90;47.60
8928;DHT22;4499;48.304;11.902;2023-06-22T13:56:21;33.90;47.20
8928;DHT22;4499;48.304;11.902;2023-06-22T13:58:49;33.90;47.30
8928;DHT22;4499;48.304;11.902;2023-06-22T14:01:18;34.20;46.90
8928;DHT22;4499;48.304;11.902;2023-06-22T14:03:48;34.40;47.30
8928;DHT22;4499;48.304;11.902;2023-06-22T14:06:16;34.20;46.50
8928;DHT22;4499;48.304;11.902;2023-06-22T14:08:44;34.10;46.00
8928;DHT22;4499;48.304;11.902;2023-06-22T14:11:13;33.90;46.70
8928;DHT22;4499;48.304;11.902;2023-06-22T14:13:41;33.90;47.10
8928;DHT22;4499;48.304;11.902;2023-06-22T14:16:11;34.00;48.50
8928;DHT22;4499;48.304;11.902;2023-06-22T14:18:39;34.10;47.30
8928;DHT22;4499;48.304;11.902;2023-06-22T14:21:08;34.30;47.60
8928;DHT22;4499;48.304;11.902;2023-06-22T14:23:37;34.20;48.30
8928;DHT22;4499;48.304;11.902;2023-06-22T14:26:05;34.20;48.00
8928;DHT22;4499;48.304;11.902;2023-06-22T14:28:33;34.40;46.80
8928;DHT22;4499;48.304;11.902;2023-06-22T14:31:01;34.50;45.20
8928;DHT22;4499;48.304;11.902;2023-06-22T14:33:30;34.60;47.20
8928;DHT22;4499;48.304;11.902;2023-06-22T14:35:58;34.80;44.60
8928;DHT22;4499;48.304;11.902;2023-06-22T14:38:27;34.70;45.30
8928;DHT22;4499;48.304;11.902;2023-06-22T14:40:55;34.80;45.50
8928;DHT22;4499;48.304;11.902;2023-06-22T14:43:38;34.90;44.80
8928;DHT22;4499;48.304;11.902;2023-06-22T14:46:11;34.80;45.50
8928;DHT22;4499;48.304;11.902;2023-06-22T14:48:39;34.60;45.70
8928;DHT22;4499;48.304;11.902;2023-06-22T14:51:08;34.70;45.90
8928;DHT22;4499;48.304;11.902;2023-06-22T14:53:39;34.60;46.10
8928;DHT22;4499;48.304;11.902;2023-06-22T14:56:07;34.40;45.80
8928;DHT22;4499;48.304;11.902;2023-06-22T14:58:35;34.50;46.00
8928;DHT22;4499;48.304;11.902;2023-06-22T15:01:03;34.70;46.60
8928;DHT22;4499;48.304;11.902;2023-06-22T15:03:35;34.50;44.50
8928;DHT22;4499;48.304;11.902;2023-06-22T15:06:03;34.20;45.90
8928;DHT22;4499;48.304;11.902;2023-06-22T15:08:31;34.30;45.10
8928;DHT22;4499;48.304;11.902;2023-06-22T15:11:01;34.20;44.70
8928;DHT22;4499;48.304;11.902;2023-06-22T15:13:30;34.10;44.90
8928;DHT22;4499;48.304;11.902;2023-06-22T15:16:00;34.30;46.80
8928;DHT22;4499;48.304;11.902;2023-06-22T15:18:30;34.40;45.40
8928;DHT22;4499;48.304;11.902;2023-06-22T15:21:00;34.10;45.30
8928;DHT22;4499;48.304;11.902;2023-06-22T15:23:30;34.20;47.80
8928;DHT22;4499;48.304;11.902;2023-06-22T15:26:01;34.10;45.20
8928;DHT22;4499;48.304;11.902;2023-06-22T15:28:31;34.00;46.00
8928;DHT22;4499;48.304;11.902;2023-06-22T15:31:02;33.90;46.60
8928;DHT22;4499;48.304;11.902;2023-06-22T15:33:30;34.10;48.40
8928;DHT22;4499;48.304;11.902;2023-06-22T15:35:59;33.90;46.50
8928;DHT22;4499;48.304;11.902;2023-06-22T15:38:31;33.90;47.40
8928;DHT22;4499;48.304;11.902;2023-06-22T15:41:01;33.90;47.00
8928;DHT22;4499;48.304;11.902;2023-06-22T15:43:29;33.80;47.20
8928;DHT22;4499;48.304;11.902;2023-06-22T15:45:57;33.90;47.70
8928;DHT22;4499;48.304;11.902;2023-06-22T15:48:25;33.70;46.60
8928;DHT22;4499;48.304;11.902;2023-06-22T15:50:53;33.60;47.60
8928;DHT22;4499;48.304;11.902;2023-06-22T15:53:21;33.70;47.70
8928;DHT22;4499;48.304;11.902;2023-06-22T15:55:50;33.70;47.90
8928;DHT22;4499;48.304;11.902;2023-06-22T15:58:20;33.60;46.70